KHDN/HDN METAR and TAF weather

Enter ICAO airport designator
Station Type Date Time Source
KHDN METAR 2023/01/30 10:56 UTC NOAA

KHDN 301056Z AUTO 26003KT 1 1/2SM -SN BR BKN014 OVC021 M18/M20 A2993 RMK AO2 SLP233 P0000 T11831200 FZRANO


Station Type Date Time Source
KHDN Decoded METAR 2023/01/30 10:56 UTC NOAA

Hayden, Yampa Valley Airport, CO, United States (KHDN) 40-29N 107-13W
Jan 30, 2023 - 05:56 AM EST / 2023.01.30 1056 UTC
Wind: from the W (260 degrees) at 3 MPH (3 KT):0
Visibility: 1 1/2 mile(s):0
Sky conditions: overcast
Weather: light snow; mist
Precipitation last hour: A trace
Temperature: -0.9 F (-18.3 C)
Dew Point: -4.0 F (-20.0 C)
Relative Humidity: 86%
Pressure (altimeter): 29.93 in. Hg (1013 hPa)
ob: KHDN 301056Z AUTO 26003KT 1 1/2SM -SN BR BKN014 OVC021 M18/M20 A2993 RMK AO2 SLP233 P0000 T11831200 FZRANO
cycle: 11

Station Type Date Time Source
KHDN TAF 2023/01/30 12:22 UTC NOAA

TAF KHDN 301120Z 3012/3112 26005KT 2SM -SN BR BKN014 OVC020
FM301500 26005KT 1 1/2SM -SHSN BR OVC015
FM301800 25006KT 3SM -SHSN BR BKN020
FM310000 VRB04KT P6SM BKN060
FM310300 VRB04KT P6SM SCT070 BKN100

Example: see airport list